• Join FlightAware (Why Join?)
  • Login
  • US Flag 
07:56PM EST


 

Airport Tracker/Info


-or-


 

Live Flight TrackerFlight Track Log ✈ FLG3326 ✈ 13-Jun-2013 ✈ KSTL - KJFK

Flight Track Log - Related Links

Times and Time Zones

All times are in EDT time to prevent confusion due to time zone crossing. See the FLG3326 flight status page for this flight to view local times or setup timezone preferences in your user account.

Time Position Orientation Groundspeed Altitude Reporting Facility
EDT Latitude Longitude Course Direction KTS MPH feet Rate Location/Type
01:15PM 38.7667 -90.4167 80° East 164 189 1,600  Level Gateway (St. Louis) TRACON
01:16PM 38.8167 -90.4500 333° Northwest 192 221 3,600 1,920 Climbing Gateway (St. Louis) TRACON
01:17PM 38.8278 -90.4575 332° Northwest 191 220 4,200 1,740 Climbing Kansas City Center
01:18PM 38.8611 -90.3936 56° Northeast 237 273 5,900 1,980 Climbing Kansas City Center
01:19PM 38.7627 -89.7741 87° East  Level FlightAware Approximate
01:19PM 38.8519 -90.2911 97° East 279 321 8,300  Level Kansas City Center
01:20PM 38.7724 -89.6264 80° East  Level FlightAware Approximate
01:20PM 38.8422 -90.1819 96° East 298 343 10,400  Level Kansas City Center
01:21PM 38.8322 -90.0583 96° East 340 391 11,400 1,380 Climbing Kansas City Center
01:22PM 38.8200 -89.9244 97° East 371 427 13,300 1,740 Climbing Kansas City Center
01:23PM 38.8086 -89.7889 96° East 379 436 15,100 1,800 Climbing Kansas City Center
01:24PM 38.7925 -89.6156 97° East 391 450 17,200 1,740 Climbing Kansas City Center
01:25PM 38.7972 -89.4725 88° East 407 468 18,700 1,320 Climbing Kansas City Center
01:26PM 38.8147 -89.3300 81° East 406 467 20,000 1,380 Climbing Kansas City Center
01:27PM 38.8347 -89.1714 81° East 417 480 21,600 1,260 Climbing Kansas City Center
01:28PM 38.8536 -89.0200 81° East 429 494 22,700 1,140 Climbing Kansas City Center
01:29PM 38.8744 -88.8836 79° East 446 513 24,000 1,440 Climbing Kansas City Center
01:30PM 38.8972 -88.6967 81° East 444 511 25,700 1,260 Climbing Kansas City Center
01:31PM 38.9172 -88.5267 81° East 448 516 26,700 900 Climbing Kansas City Center
01:32PM 38.9539 -88.3703 73° East 451 519 27,600 840 Climbing Kansas City Center
01:33PM 38.9975 -88.2122 70° East 461 531 28,500 1,080 Climbing Kansas City Center
01:34PM 39.0311 -88.0872 71° East 466 536 29,600 1,620 Climbing Indianapolis Center
01:35PM 39.0742 -87.9311 70° East 465 535 31,500 1,140 Climbing Indianapolis Center
01:36PM 39.1228 -87.7842 67° East 452 520 32,000 240 Climbing Indianapolis Center
01:37PM 39.1847 -87.6381 61° Northeast 459 528 32,000 480 Level Indianapolis Center
01:38PM 39.2486 -87.4919 61° Northeast 464 534 33,000 600 Climbing Indianapolis Center
01:39PM 39.3150 -87.3503 59° Northeast 460 529 33,300 480 Climbing Indianapolis Center
01:40PM 39.3867 -87.2153 55° Northeast 454 522 34,000 300 Climbing Indianapolis Center
01:41PM 39.4772 -87.0531 54° Northeast 461 531 34,000  Level Indianapolis Center
01:42PM 39.5525 -86.9181 54° Northeast 460 529 34,000  Level Indianapolis Center
01:43PM 39.6286 -86.7842 54° Northeast 459 528 34,000  Level Indianapolis Center
01:44PM 39.6881 -86.6278 64° Northeast 475 547 34,000  Level Indianapolis Center
01:45PM 39.7464 -86.4742 64° Northeast 473 544 34,000  Level Indianapolis Center
01:46PM 39.8042 -86.3175 64° Northeast 477 549 34,000  Level Indianapolis Center
01:47PM 39.8628 -86.1606 64° Northeast 480 552 34,000 480 Level Indianapolis Center
01:48PM 39.9219 -86.0031 64° Northeast 481 554 35,000 480 Climbing Indianapolis Center
01:49PM 39.9844 -85.8306 65° Northeast 478 550 35,000  Level Indianapolis Center
01:50PM 40.0433 -85.6739 64° Northeast 477 549 35,000  Level Indianapolis Center
01:51PM 40.1003 -85.5197 64° Northeast 471 542 35,000  Level Indianapolis Center
01:52PM 40.1544 -85.3639 66° East 467 537 35,000  Level Indianapolis Center
01:53PM 40.2122 -85.2092 64° Northeast 468 539 35,000  Level Indianapolis Center
01:55PM 40.2683 -85.0550 64° Northeast 465 535 35,000  Level Indianapolis Center
01:56PM 40.3242 -84.9022 64° Northeast 461 531 35,000  Level Indianapolis Center
01:57PM 40.3772 -84.7483 66° East 460 529 35,000  Level Indianapolis Center
01:58PM 40.4319 -84.5953 65° Northeast 458 527 35,000  Level Indianapolis Center
01:59PM 40.4864 -84.4417 65° Northeast 459 528 35,000  Level Indianapolis Center
02:00PM 40.5406 -84.2872 65° Northeast 459 528 35,000  Level Indianapolis Center
02:01PM 40.6042 -84.1017 66° East 470 541 35,000  Level Indianapolis Center
02:02PM 40.6619 -83.9392 65° Northeast 481 554 35,000  Level Indianapolis Center
02:03PM 40.7183 -83.7731 66° East 489 563 35,000  Level Indianapolis Center
02:04PM 40.7761 -83.6042 66° East 497 572 35,000  Level Indianapolis Center
02:05PM 40.8361 -83.4281 66° East 499 574 35,000  Level Indianapolis Center
02:06PM 40.8933 -83.2597 66° East 498 573 35,000  Level Indianapolis Center
02:07PM 40.9503 -83.0889 66° East 502 578 35,000  Level Indianapolis Center
02:08PM 41.0064 -82.9164 67° East 494 568 35,000  Level Cleveland Center
02:09PM 41.0639 -82.7450 66° East 494 568 35,000  Level Cleveland Center
02:10PM 41.1214 -82.5733 66° East 499 574 35,000  Level Cleveland Center
02:11PM 41.1783 -82.4011 66° East 504 580 35,000  Level Cleveland Center
02:12PM 41.2353 -82.2233 67° East 509 586 35,000  Level Cleveland Center
02:13PM 41.2939 -82.0450 66° East 516 594 35,000  Level Cleveland Center
02:14PM 41.3525 -81.8667 66° East 516 594 35,000  Level Cleveland Center
02:15PM 41.4083 -81.6933 67° East 516 594 35,000  Level Cleveland Center
02:16PM 41.4664 -81.5114 67° East 521 600 35,000  Level Cleveland Center
02:17PM 41.5219 -81.3319 67° East 521 600 35,000  Level Cleveland Center
02:18PM 41.5792 -81.1467 68° East 521 600 35,000  Level Cleveland Center
02:19PM 41.6361 -80.9667 67° East 527 606 35,000  Level Cleveland Center
02:20PM 41.6908 -80.7861 68° East 527 606 35,000  Level Cleveland Center
02:21PM 41.7472 -80.5969 68° East 532 612 35,000  Level Cleveland Center
02:22PM 41.7994 -80.4328 67° East 532 612 35,000  Level Cleveland Center
02:23PM 41.8553 -80.2486 68° East 532 612 35,000  Level Cleveland Center
02:24PM 41.9067 -80.0586 70° East 532 612 35,000  Level Cleveland Center
02:25PM 41.9097 -79.8633 89° East 513 590 35,000  Level Cleveland Center
02:26PM 41.9042 -79.6736 92° East 518 596 35,000  Level Cleveland Center
02:27PM 41.9044 -79.4589 90° East 513 590 35,000  Level Cleveland Center
02:28PM 41.9008 -79.3028 92° East 513 590 35,000  Level Cleveland Center
02:29PM 41.8981 -79.0878 91° East 513 590 35,000  Level Cleveland Center
02:30PM 41.8931 -78.8733 92° East 513 590 35,000  Level Cleveland Center
02:31PM 41.8878 -78.6725 92° East 513 590 35,000  Level Cleveland Center
02:32PM 41.8822 -78.4775 92° East 518 596 35,000  Level Cleveland Center
02:33PM 41.8764 -78.2797 92° East 518 596 35,000  Level Cleveland Center
02:34PM 41.8692 -78.0128 92° East 548 631 35,000  Level New York Center
02:35PM 41.8542 -77.8136 96° East 543 625 35,000  Level New York Center
02:36PM 41.8067 -77.6303 109° East 521 600 35,000  Level New York Center
02:37PM 41.7564 -77.4500 110° East 515 593 35,000 -480 Level New York Center
02:38PM 41.7114 -77.2842 110° East 522 601 34,100 -1,200 Descending New York Center
02:39PM 41.6631 -77.1017 109° East 522 601 32,600 -1,500 Descending New York Center
02:40PM 41.6142 -76.9194 110° East 522 601 31,100 -1,320 Descending New York Center
02:41PM 41.5650 -76.7431 110° East 522 601 30,000 -1,260 Descending New York Center
02:42PM 41.5142 -76.5503 109° East 509 586 28,600 -1,380 Descending New York Center
02:43PM 41.4681 -76.3800 110° East 499 574 27,300 -1,260 Descending New York Center
02:44PM 41.4214 -76.2211 111° Southeast 499 574 26,200 -1,260 Descending New York Center
02:45PM 41.3747 -76.0517 110° East 504 580 24,900 -1,320 Descending New York Center
02:46PM 41.3278 -75.8903 111° Southeast 483 556 23,600 -960 Descending New York Center
02:47PM 41.2828 -75.7239 110° East 476 548 23,000 -360 Descending New York Center
02:48PM 41.2292 -75.5600 113° Southeast 476 548 23,000  Level New York Center
02:49PM 41.1750 -75.3992 114° Southeast 481 554 23,000 -120 Level New York Center
02:50PM 41.1208 -75.2411 114° Southeast 481 554 22,800 -900 Descending New York Center
02:51PM 41.0664 -75.0808 114° Southeast 471 542 21,300 -960 Descending New York Center
02:52PM 41.0097 -74.9150 114° Southeast 464 534 21,000 -180 Descending New York Center
02:53PM 40.9842 -74.7456 101° East 457 526 21,000 -780 Level New York Center
02:54PM 40.9647 -74.5769 99° East 457 526 19,500 -1,020 Descending New York Center
02:55PM 40.9467 -74.4247 99° East 464 534 19,000 -300 Descending New York Center
02:56PM 40.9272 -74.2397 98° East 469 540 19,000  Level New York Center
02:57PM 40.9167 -74.1833 104° East 435 501 19,000 -300 Level New York TRACON
02:58PM 40.8667 -74.0333 114° Southeast 373 429 18,600 -1,140 Descending New York TRACON
02:59PM 40.8167 -73.9333 123° Southeast 372 428 16,700 -1,740 Descending New York TRACON
03:00PM 40.7667 -73.8333 123° Southeast 363 418 15,300 -1,620 Descending New York TRACON
03:01PM 40.7333 -73.7000 108° East 387 445 13,600 -1,140 Descending New York TRACON
03:02PM 40.7000 -73.5833 111° Southeast 352 405 13,000 -840 Descending New York TRACON
03:03PM 40.6333 -73.4833 131° Southeast 323 372 11,900 -1,560 Descending New York TRACON
03:04PM 40.5667 -73.4167 143° Southeast 310 357 10,000 -1,920 Descending New York TRACON
03:05PM 40.5000 -73.4667 210° Southwest 247 284 8,100 -2,220 Descending New York TRACON
03:06PM 40.4667 -73.5500 242° Southwest 245 282 5,600 -2,580 Descending New York TRACON
03:07PM 40.4500 -73.6333 255° West 255 293 3,200 -1,920 Descending New York TRACON
03:08PM 40.4333 -73.7167 255° West 266 306 2,000 -600 Descending New York TRACON
03:09PM 40.4333 -73.8000 270° West 248 285 2,000  Level New York TRACON
03:10PM 40.4667 -73.8667 303° West 217 250 2,000  Level New York TRACON